sensor_id;sensor_type;location;lat;lon;timestamp;pressure;altitude;pressure_sealevel;temperature;humidity
12360;BME280;6244;51.460;7.090;2023-03-03T00:01:03;101330.56;;;2.33;71.71
12360;BME280;6244;51.460;7.090;2023-03-03T00:06:01;101330.50;;;2.43;71.78
12360;BME280;6244;51.460;7.090;2023-03-03T00:10:59;101332.97;;;2.58;71.42
12360;BME280;6244;51.460;7.090;2023-03-03T00:16:11;101334.97;;;2.24;72.65
12360;BME280;6244;51.460;7.090;2023-03-03T00:21:20;101351.94;;;2.64;72.54
12360;BME280;6244;51.460;7.090;2023-03-03T00:26:21;101339.69;;;2.82;69.91
12360;BME280;6244;51.460;7.090;2023-03-03T00:31:19;101334.69;;;2.62;71.10
12360;BME280;6244;51.460;7.090;2023-03-03T00:36:25;101351.69;;;2.95;70.56
12360;BME280;6244;51.460;7.090;2023-03-03T00:41:27;101347.59;;;2.68;70.80
12360;BME280;6244;51.460;7.090;2023-03-03T00:46:23;101346.63;;;2.81;70.89
12360;BME280;6244;51.460;7.090;2023-03-03T00:51:26;101353.69;;;2.64;70.79
12360;BME280;6244;51.460;7.090;2023-03-03T00:56:23;101356.09;;;2.85;69.49
12360;BME280;6244;51.460;7.090;2023-03-03T01:01:21;101361.47;;;2.58;70.71
12360;BME280;6244;51.460;7.090;2023-03-03T01:06:19;101358.19;;;2.36;71.31
12360;BME280;6244;51.460;7.090;2023-03-03T01:11:19;101355.53;;;2.42;71.58
12360;BME280;6244;51.460;7.090;2023-03-03T01:16:17;101363.53;;;2.04;72.54
12360;BME280;6244;51.460;7.090;2023-03-03T01:21:15;101359.19;;;2.09;71.97
12360;BME280;6244;51.460;7.090;2023-03-03T01:26:12;101358.41;;;1.90;73.73
12360;BME280;6244;51.460;7.090;2023-03-03T01:31:08;101362.44;;;2.43;72.66
12360;BME280;6244;51.460;7.090;2023-03-03T01:36:06;101362.59;;;2.16;72.73
12360;BME280;6244;51.460;7.090;2023-03-03T01:41:05;101360.59;;;2.59;71.30
12360;BME280;6244;51.460;7.090;2023-03-03T01:46:28;101359.78;;;2.55;71.63
12360;BME280;6244;51.460;7.090;2023-03-03T01:51:28;101358.19;;;2.36;71.71
12360;BME280;6244;51.460;7.090;2023-03-03T01:56:27;101358.97;;;2.49;72.67
12360;BME280;6244;51.460;7.090;2023-03-03T02:01:26;101360.69;;;2.50;71.33
12360;BME280;6244;51.460;7.090;2023-03-03T02:06:26;101354.75;;;2.29;72.11
12360;BME280;6244;51.460;7.090;2023-03-03T02:11:24;101346.13;;;2.29;71.84
12360;BME280;6244;51.460;7.090;2023-03-03T02:16:25;101340.81;;;2.50;72.23
12360;BME280;6244;51.460;7.090;2023-03-03T02:21:23;101339.09;;;2.48;72.05
12360;BME280;6244;51.460;7.090;2023-03-03T02:26:25;101330.41;;;2.56;71.64
12360;BME280;6244;51.460;7.090;2023-03-03T02:31:24;101339.97;;;2.47;70.80
12360;BME280;6244;51.460;7.090;2023-03-03T02:36:24;101346.97;;;2.32;72.04
12360;BME280;6244;51.460;7.090;2023-03-03T02:41:29;101368.41;;;2.54;71.87
12360;BME280;6244;51.460;7.090;2023-03-03T02:46:31;101362.44;;;2.43;71.61
12360;BME280;6244;51.460;7.090;2023-03-03T02:51:28;101361.75;;;2.11;72.69
12360;BME280;6244;51.460;7.090;2023-03-03T02:56:27;101357.53;;;1.99;72.63
12360;BME280;6244;51.460;7.090;2023-03-03T03:01:24;101354.84;;;2.10;73.16
12360;BME280;6244;51.460;7.090;2023-03-03T03:06:20;101348.81;;;2.14;73.19
12360;BME280;6244;51.460;7.090;2023-03-03T03:11:17;101358.34;;;2.04;73.06
12360;BME280;6244;51.460;7.090;2023-03-03T03:16:14;101356.56;;;2.11;72.97
12360;BME280;6244;51.460;7.090;2023-03-03T03:21:12;101359.22;;;1.97;73.39
12360;BME280;6244;51.460;7.090;2023-03-03T03:26:09;101374.78;;;2.00;73.53
12360;BME280;6244;51.460;7.090;2023-03-03T03:31:07;101372.97;;;2.14;74.09
12360;BME280;6244;51.460;7.090;2023-03-03T03:36:06;101375.50;;;2.26;72.74
12360;BME280;6244;51.460;7.090;2023-03-03T03:41:04;101373.69;;;2.41;72.99
12360;BME280;6244;51.460;7.090;2023-03-03T03:46:01;101369.34;;;2.49;72.76
12360;BME280;6244;51.460;7.090;2023-03-03T03:50:58;101375.28;;;2.61;71.69
12360;BME280;6244;51.460;7.090;2023-03-03T03:55:56;101395.25;;;2.44;71.76
12360;BME280;6244;51.460;7.090;2023-03-03T04:00:52;101390.09;;;2.40;72.25
12360;BME280;6244;51.460;7.090;2023-03-03T04:05:51;101393.69;;;2.13;72.28
12360;BME280;6244;51.460;7.090;2023-03-03T04:10:48;101398.00;;;2.14;71.87
12360;BME280;6244;51.460;7.090;2023-03-03T04:15:46;101398.88;;;2.08;72.36
12360;BME280;6244;51.460;7.090;2023-03-03T04:20:42;101397.16;;;2.12;72.52
12360;BME280;6244;51.460;7.090;2023-03-03T04:25:39;101395.47;;;1.95;72.30
12360;BME280;6244;51.460;7.090;2023-03-03T04:30:35;101396.31;;;2.05;72.31
12360;BME280;6244;51.460;7.090;2023-03-03T04:35:33;101397.22;;;1.86;72.40
12360;BME280;6244;51.460;7.090;2023-03-03T04:40:30;101397.28;;;1.72;72.91
12360;BME280;6244;51.460;7.090;2023-03-03T04:45:26;101400.78;;;1.62;72.52
12360;BME280;6244;51.460;7.090;2023-03-03T04:50:23;101405.97;;;1.42;73.95
12360;BME280;6244;51.460;7.090;2023-03-03T04:55:21;101401.66;;;1.44;74.50
12360;BME280;6244;51.460;7.090;2023-03-03T05:00:18;101404.28;;;1.10;75.07
12360;BME280;6244;51.460;7.090;2023-03-03T05:05:15;101408.56;;;1.34;74.39
12360;BME280;6244;51.460;7.090;2023-03-03T05:10:11;101405.13;;;1.31;74.33
12360;BME280;6244;51.460;7.090;2023-03-03T05:15:09;101407.69;;;1.47;74.27
12360;BME280;6244;51.460;7.090;2023-03-03T05:20:09;101396.47;;;1.55;74.31
12360;BME280;6244;51.460;7.090;2023-03-03T05:25:07;101403.34;;;1.68;73.53
12360;BME280;6244;51.460;7.090;2023-03-03T05:30:06;101396.44;;;1.61;72.87
12360;BME280;6244;51.460;7.090;2023-03-03T05:35:05;101401.66;;;1.36;73.12
12360;BME280;6244;51.460;7.090;2023-03-03T05:40:02;101400.78;;;1.45;74.33
12360;BME280;6244;51.460;7.090;2023-03-03T05:44:59;101402.50;;;1.57;74.21
12360;BME280;6244;51.460;7.090;2023-03-03T05:49:56;101412.81;;;1.76;73.26
12360;BME280;6244;51.460;7.090;2023-03-03T05:54:54;101405.84;;;2.00;73.13
12360;BME280;6244;51.460;7.090;2023-03-03T05:59:50;101407.63;;;1.72;73.24
12360;BME280;6244;51.460;7.090;2023-03-03T06:04:47;101423.19;;;1.63;73.16
12360;BME280;6244;51.460;7.090;2023-03-03T06:09:43;101411.13;;;1.65;72.98
12360;BME280;6244;51.460;7.090;2023-03-03T06:14:41;101416.28;;;1.66;72.78
12360;BME280;6244;51.460;7.090;2023-03-03T06:19:38;101432.63;;;1.73;72.92
12360;BME280;6244;51.460;7.090;2023-03-03T06:24:35;101443.88;;;1.63;72.58
12360;BME280;6244;51.460;7.090;2023-03-03T06:29:32;101450.75;;;1.77;72.42
12360;BME280;6244;51.460;7.090;2023-03-03T06:34:31;101446.41;;;1.89;72.17
12360;BME280;6244;51.460;7.090;2023-03-03T06:39:27;101448.16;;;1.76;72.11
12360;BME280;6244;51.460;7.090;2023-03-03T06:44:24;101443.84;;;1.78;72.18
12360;BME280;6244;51.460;7.090;2023-03-03T06:49:21;101451.56;;;1.92;71.09
12360;BME280;6244;51.460;7.090;2023-03-03T06:54:20;101467.16;;;1.63;71.95
12360;BME280;6244;51.460;7.090;2023-03-03T06:59:18;101474.00;;;1.82;71.72
12360;BME280;6244;51.460;7.090;2023-03-03T07:04:23;101467.97;;;1.83;71.41
12360;BME280;6244;51.460;7.090;2023-03-03T07:09:26;101466.25;;;1.84;72.33
12360;BME280;6244;51.460;7.090;2023-03-03T07:14:22;101475.75;;;1.83;71.29
12360;BME280;6244;51.460;7.090;2023-03-03T07:19:28;101474.00;;;1.82;72.05
12360;BME280;6244;51.460;7.090;2023-03-03T07:24:28;101488.69;;;1.79;71.94
12360;BME280;6244;51.460;7.090;2023-03-03T07:29:26;101486.91;;;2.06;71.54
12360;BME280;6244;51.460;7.090;2023-03-03T07:34:29;101492.06;;;2.16;71.14
12360;BME280;6244;51.460;7.090;2023-03-03T07:39:35;101498.94;;;2.21;70.92
12360;BME280;6244;51.460;7.090;2023-03-03T07:44:34;101512.78;;;2.06;70.77
12360;BME280;6244;51.460;7.090;2023-03-03T07:49:33;101517.97;;;2.05;70.82
12360;BME280;6244;51.460;7.090;2023-03-03T07:54:36;101527.47;;;1.97;71.09
12360;BME280;6244;51.460;7.090;2023-03-03T07:59:34;101532.63;;;2.11;71.27
12360;BME280;6244;51.460;7.090;2023-03-03T08:04:38;101542.16;;;1.90;70.96
12360;BME280;6244;51.460;7.090;2023-03-03T08:09:46;101534.41;;;1.80;72.19
12360;BME280;6244;51.460;7.090;2023-03-03T08:14:43;101538.69;;;1.94;71.16
12360;BME280;6244;51.460;7.090;2023-03-03T08:19:39;101551.66;;;1.90;71.34
12360;BME280;6244;51.460;7.090;2023-03-03T08:24:36;101548.19;;;1.82;71.42
12360;BME280;6244;51.460;7.090;2023-03-03T08:29:34;101554.22;;;1.94;72.06
12360;BME280;6244;51.460;7.090;2023-03-03T08:34:30;101551.66;;;1.77;72.07
12360;BME280;6244;51.460;7.090;2023-03-03T08:39:27;101558.53;;;2.00;72.05
12360;BME280;6244;51.460;7.090;2023-03-03T08:44:23;101562.84;;;2.02;71.66
12360;BME280;6244;51.460;7.090;2023-03-03T08:49:21;101563.69;;;2.14;71.57
12360;BME280;6244;51.460;7.090;2023-03-03T08:54:18;101569.75;;;1.96;72.00
12360;BME280;6244;51.460;7.090;2023-03-03T08:59:14;101569.72;;;2.06;70.88
12360;BME280;6244;51.460;7.090;2023-03-03T09:04:11;101573.19;;;2.12;70.22
12360;BME280;6244;51.460;7.090;2023-03-03T09:09:09;101588.72;;;2.07;71.75
12360;BME280;6244;51.460;7.090;2023-03-03T09:14:09;101576.56;;;2.43;70.85
12360;BME280;6244;51.460;7.090;2023-03-03T09:19:20;101584.31;;;2.50;70.33
12360;BME280;6244;51.460;7.090;2023-03-03T09:24:23;101581.75;;;2.49;70.49
12360;BME280;6244;51.460;7.090;2023-03-03T09:29:24;101571.28;;;2.69;69.60
12360;BME280;6244;51.460;7.090;2023-03-03T09:34:23;101589.53;;;2.41;70.50
12360;BME280;6244;51.460;7.090;2023-03-03T09:39:24;101585.16;;;2.61;70.55
12360;BME280;6244;51.460;7.090;2023-03-03T09:50:03;101596.22;;;2.94;69.03
12360;BME280;6244;51.460;7.090;2023-03-03T09:55:13;101596.19;;;3.11;69.38
12360;BME280;6244;51.460;7.090;2023-03-03T10:00:32;101595.31;;;3.06;68.41
12360;BME280;6244;51.460;7.090;2023-03-03T10:05:40;101597.00;;;3.10;67.34
12360;BME280;6244;51.460;7.090;2023-03-03T10:11:03;101602.25;;;3.02;67.50
12360;BME280;6244;51.460;7.090;2023-03-03T10:16:16;101605.66;;;3.09;67.09
12360;BME280;6244;51.460;7.090;2023-03-03T10:21:21;101616.94;;;3.02;67.75
12360;BME280;6244;51.460;7.090;2023-03-03T10:31:50;101615.03;;;3.34;67.74
12360;BME280;6244;51.460;7.090;2023-03-03T10:36:54;101618.63;;;3.07;67.24
12360;BME280;6244;51.460;7.090;2023-03-03T10:42:05;101618.63;;;3.07;67.90
12360;BME280;6244;51.460;7.090;2023-03-03T10:47:39;101619.50;;;3.09;68.28
12360;BME280;6244;51.460;7.090;2023-03-03T10:52:43;101619.50;;;3.14;67.38
12360;BME280;6244;51.460;7.090;2023-03-03T10:57:48;101621.22;;;3.12;67.48
12360;BME280;6244;51.460;7.090;2023-03-03T11:02:58;101630.81;;;2.90;69.06
12360;BME280;6244;51.460;7.090;2023-03-03T11:08:07;101628.13;;;3.13;68.75
12360;BME280;6244;51.460;7.090;2023-03-03T11:13:13;101630.66;;;3.27;68.14
12360;BME280;6244;51.460;7.090;2023-03-03T11:18:20;101617.69;;;3.22;67.66
12360;BME280;6244;51.460;7.090;2023-03-03T11:23:30;101618.38;;;3.53;67.34
12360;BME280;6244;51.460;7.090;2023-03-03T11:28:46;101613.13;;;3.64;66.09
12360;BME280;6244;51.460;7.090;2023-03-03T11:33:56;101612.19;;;3.74;66.01
12360;BME280;6244;51.460;7.090;2023-03-03T11:38:58;101606.88;;;3.89;65.17
12360;BME280;6244;51.460;7.090;2023-03-03T11:44:01;101609.38;;;4.01;64.86
12360;BME280;6244;51.460;7.090;2023-03-03T11:48:59;101602.50;;;3.94;64.92
12360;BME280;6244;51.460;7.090;2023-03-03T11:54:00;101593.75;;;4.04;64.15
12360;BME280;6244;51.460;7.090;2023-03-03T11:59:14;101589.19;;;4.28;63.67
12360;BME280;6244;51.460;7.090;2023-03-03T12:04:18;101590.94;;;4.26;63.69
12360;BME280;6244;51.460;7.090;2023-03-03T12:09:25;101590.06;;;4.27;63.52
12360;BME280;6244;51.460;7.090;2023-03-03T12:14:38;101580.41;;;4.39;63.50
12360;BME280;6244;51.460;7.090;2023-03-03T12:19:45;101578.78;;;4.29;63.54
12360;BME280;6244;51.460;7.090;2023-03-03T12:24:58;101564.78;;;4.42;63.58
12360;BME280;6244;51.460;7.090;2023-03-03T12:30:08;101573.22;;;4.63;63.20
12360;BME280;6244;51.460;7.090;2023-03-03T12:35:12;101568.41;;;5.00;62.29
12360;BME280;6244;51.460;7.090;2023-03-03T12:40:16;101563.06;;;5.11;59.80
12360;BME280;6244;51.460;7.090;2023-03-03T12:45:28;101565.88;;;4.94;61.01
12360;BME280;6244;51.460;7.090;2023-03-03T12:50:34;101564.22;;;4.88;62.04
12360;BME280;6244;51.460;7.090;2023-03-03T12:55:38;101571.22;;;4.85;62.30
12360;BME280;6244;51.460;7.090;2023-03-03T13:00:48;101570.78;;;5.74;59.53
12360;BME280;6244;51.460;7.090;2023-03-03T13:05:55;101571.41;;;5.88;59.21
12360;BME280;6244;51.460;7.090;2023-03-03T13:11:00;101570.09;;;5.63;58.26
12360;BME280;6244;51.460;7.090;2023-03-03T13:16:07;101564.16;;;5.53;59.53
12360;BME280;6244;51.460;7.090;2023-03-03T13:21:08;101556.25;;;6.11;56.32
12360;BME280;6244;51.460;7.090;2023-03-03T13:26:16;101559.28;;;5.87;58.19
12360;BME280;6244;51.460;7.090;2023-03-03T13:31:19;101564.13;;;5.54;59.58
12360;BME280;6244;51.460;7.090;2023-03-03T13:36:17;101550.25;;;6.53;59.16
12360;BME280;6244;51.460;7.090;2023-03-03T13:41:20;101550.72;;;6.73;56.24
12360;BME280;6244;51.460;7.090;2023-03-03T13:46:29;101545.50;;;6.73;55.80
12360;BME280;6244;51.460;7.090;2023-03-03T13:51:35;101540.91;;;7.23;55.89
12360;BME280;6244;51.460;7.090;2023-03-03T13:56:54;101536.34;;;6.95;55.69
12360;BME280;6244;51.460;7.090;2023-03-03T14:02:02;101531.09;;;6.54;55.45
12360;BME280;6244;51.460;7.090;2023-03-03T14:07:11;101526.59;;;7.02;55.31
12360;BME280;6244;51.460;7.090;2023-03-03T14:12:12;101526.47;;;7.08;54.01
12360;BME280;6244;51.460;7.090;2023-03-03T14:17:23;101517.91;;;7.01;53.72
12360;BME280;6244;51.460;7.090;2023-03-03T14:22:28;101513.59;;;7.00;55.20
12360;BME280;6244;51.460;7.090;2023-03-03T14:27:32;101499.88;;;6.91;54.39
12360;BME280;6244;51.460;7.090;2023-03-03T14:32:31;101505.28;;;6.82;54.60
12360;BME280;6244;51.460;7.090;2023-03-03T14:37:41;101512.69;;;7.01;55.58
12360;BME280;6244;51.460;7.090;2023-03-03T14:42:45;101499.53;;;7.07;54.70
12360;BME280;6244;51.460;7.090;2023-03-03T14:47:45;101498.66;;;7.05;53.82
12360;BME280;6244;51.460;7.090;2023-03-03T14:52:42;101497.56;;;7.16;54.22
12360;BME280;6244;51.460;7.090;2023-03-03T14:57:40;101487.56;;;7.34;53.96
12360;BME280;6244;51.460;7.090;2023-03-03T15:02:42;101485.66;;;7.04;54.57
12360;BME280;6244;51.460;7.090;2023-03-03T15:07:41;101479.00;;;6.91;54.56
12360;BME280;6244;51.460;7.090;2023-03-03T15:12:39;101479.06;;;6.49;56.02
12360;BME280;6244;51.460;7.090;2023-03-03T15:17:38;101472.84;;;6.55;56.30
12360;BME280;6244;51.460;7.090;2023-03-03T15:22:55;101471.69;;;6.68;55.36
12360;BME280;6244;51.460;7.090;2023-03-03T15:28:07;101470.63;;;6.76;55.94
12360;BME280;6244;51.460;7.090;2023-03-03T15:33:12;101465.97;;;6.91;56.03
12360;BME280;6244;51.460;7.090;2023-03-03T15:38:25;101456.63;;;6.81;54.56
12360;BME280;6244;51.460;7.090;2023-03-03T15:43:33;101453.94;;;6.46;55.10
12360;BME280;6244;51.460;7.090;2023-03-03T15:48:50;101449.66;;;6.42;56.57
12360;BME280;6244;51.460;7.090;2023-03-03T15:54:01;101452.22;;;6.45;57.09
12360;BME280;6244;51.460;7.090;2023-03-03T15:59:27;101444.47;;;6.41;56.66
12360;BME280;6244;51.460;7.090;2023-03-03T16:04:28;101443.41;;;6.09;56.18
12360;BME280;6244;51.460;7.090;2023-03-03T16:09:39;101446.47;;;5.83;56.95
12360;BME280;6244;51.460;7.090;2023-03-03T16:14:56;101450.31;;;5.63;58.28
12360;BME280;6244;51.460;7.090;2023-03-03T16:20:02;101442.69;;;5.52;58.86
12360;BME280;6244;51.460;7.090;2023-03-03T16:25:19;101449.06;;;5.36;59.72
12360;BME280;6244;51.460;7.090;2023-03-03T16:30:30;101446.63;;;5.25;60.09
12360;BME280;6244;51.460;7.090;2023-03-03T16:35:30;101449.50;;;5.07;60.69
12360;BME280;6244;51.460;7.090;2023-03-03T16:40:33;101454.03;;;4.95;61.24
12360;BME280;6244;51.460;7.090;2023-03-03T16:45:34;101451.63;;;4.82;61.66
12360;BME280;6244;51.460;7.090;2023-03-03T16:50:38;101457.09;;;4.63;62.11
12360;BME280;6244;51.460;7.090;2023-03-03T16:55:46;101453.00;;;4.47;63.09
12360;BME280;6244;51.460;7.090;2023-03-03T17:00:52;101455.03;;;4.21;63.55
12360;BME280;6244;51.460;7.090;2023-03-03T17:05:53;101456.19;;;3.98;64.12
12360;BME280;6244;51.460;7.090;2023-03-03T17:10:59;101465.13;;;3.68;64.72
12360;BME280;6244;51.460;7.090;2023-03-03T17:16:06;101467.03;;;3.52;65.67
12360;BME280;6244;51.460;7.090;2023-03-03T17:21:11;101478.31;;;3.48;66.00
12360;BME280;6244;51.460;7.090;2023-03-03T17:26:22;101481.88;;;3.37;66.52
12360;BME280;6244;51.460;7.090;2023-03-03T17:31:32;101491.44;;;3.29;66.81
12360;BME280;6244;51.460;7.090;2023-03-03T17:36:41;101487.25;;;3.08;67.36
12360;BME280;6244;51.460;7.090;2023-03-03T17:41:48;101497.72;;;2.94;67.69
12360;BME280;6244;51.460;7.090;2023-03-03T17:46:50;101496.94;;;2.80;68.41
12360;BME280;6244;51.460;7.090;2023-03-03T17:52:05;101494.34;;;2.80;68.65
12360;BME280;6244;51.460;7.090;2023-03-03T17:57:19;101502.16;;;2.72;68.96
12360;BME280;6244;51.460;7.090;2023-03-03T18:02:36;101509.13;;;2.59;69.74
12360;BME280;6244;51.460;7.090;2023-03-03T18:07:44;101511.75;;;2.58;70.12
12360;BME280;6244;51.460;7.090;2023-03-03T18:12:52;101516.00;;;2.70;70.15
12360;BME280;6244;51.460;7.090;2023-03-03T18:18:01;101509.03;;;2.81;70.14
12360;BME280;6244;51.460;7.090;2023-03-03T18:23:19;101505.47;;;3.02;68.59
12360;BME280;6244;51.460;7.090;2023-03-03T18:28:22;101505.44;;;3.03;68.89
12360;BME280;6244;51.460;7.090;2023-03-03T18:33:34;101512.34;;;3.10;68.69
12360;BME280;6244;51.460;7.090;2023-03-03T18:38:35;101517.56;;;3.01;69.09
12360;BME280;6244;51.460;7.090;2023-03-03T18:43:54;101522.66;;;3.15;68.52
12360;BME280;6244;51.460;7.090;2023-03-03T18:48:54;101520.91;;;3.17;68.03
12360;BME280;6244;51.460;7.090;2023-03-03T18:53:59;101525.28;;;3.09;68.76
12360;BME280;6244;51.460;7.090;2023-03-03T18:58:58;101530.47;;;3.09;68.51
12360;BME280;6244;51.460;7.090;2023-03-03T19:04:00;101534.75;;;3.16;68.65
12360;BME280;6244;51.460;7.090;2023-03-03T19:08:59;101539.97;;;3.13;68.40
12360;BME280;6244;51.460;7.090;2023-03-03T19:19:20;101546.09;;;2.95;69.23
12360;BME280;6244;51.460;7.090;2023-03-03T19:24:29;101553.88;;;3.01;69.04
12360;BME280;6244;51.460;7.090;2023-03-03T19:29:54;101547.72;;;3.16;69.15
12360;BME280;6244;51.460;7.090;2023-03-03T19:35:03;101540.69;;;3.36;68.28
12360;BME280;6244;51.460;7.090;2023-03-03T19:40:13;101541.69;;;3.12;68.97
12360;BME280;6244;51.460;7.090;2023-03-03T19:45:24;101539.00;;;3.28;68.78
12360;BME280;6244;51.460;7.090;2023-03-03T19:50:32;101534.72;;;3.25;68.58
12360;BME280;6244;51.460;7.090;2023-03-03T19:55:42;101540.88;;;3.06;69.41
12360;BME280;6244;51.460;7.090;2023-03-03T20:00:45;101540.06;;;2.99;69.55
12360;BME280;6244;51.460;7.090;2023-03-03T20:05:46;101530.50;;;3.06;69.99
12360;BME280;6244;51.460;7.090;2023-03-03T20:10:49;101526.91;;;3.22;69.97
12360;BME280;6244;51.460;7.090;2023-03-03T20:15:52;101529.34;;;3.46;69.47
12360;BME280;6244;51.460;7.090;2023-03-03T20:21:03;101527.78;;;3.21;69.26
12360;BME280;6244;51.460;7.090;2023-03-03T20:26:08;101534.88;;;2.93;70.44
12360;BME280;6244;51.460;7.090;2023-03-03T20:31:14;101535.75;;;2.93;71.43
12360;BME280;6244;51.460;7.090;2023-03-03T20:36:23;101534.72;;;3.23;70.34
12360;BME280;6244;51.460;7.090;2023-03-03T20:41:28;101539.81;;;3.33;70.23
12360;BME280;6244;51.460;7.090;2023-03-03T20:46:39;101547.69;;;3.25;69.52
12360;BME280;6244;51.460;7.090;2023-03-03T20:51:42;101543.34;;;3.27;69.43
12360;BME280;6244;51.460;7.090;2023-03-03T20:56:45;101542.66;;;2.99;70.69
12360;BME280;6244;51.460;7.090;2023-03-03T21:01:49;101540.72;;;3.29;71.13
12360;BME280;6244;51.460;7.090;2023-03-03T21:06:50;101550.09;;;3.45;69.99
12360;BME280;6244;51.460;7.090;2023-03-03T21:11:47;101550.16;;;3.39;70.35
12360;BME280;6244;51.460;7.090;2023-03-03T21:16:43;101546.66;;;3.44;70.33
12360;BME280;6244;51.460;7.090;2023-03-03T21:21:41;101545.66;;;3.64;70.21
12360;BME280;6244;51.460;7.090;2023-03-03T21:26:45;101551.06;;;3.33;70.17
12360;BME280;6244;51.460;7.090;2023-03-03T21:31:43;101558.84;;;3.36;70.50
12360;BME280;6244;51.460;7.090;2023-03-03T21:36:44;101551.84;;;3.44;69.79
12360;BME280;6244;51.460;7.090;2023-03-03T21:41:53;101550.00;;;3.62;68.63
12360;BME280;6244;51.460;7.090;2023-03-03T21:46:50;101541.25;;;3.73;68.27
12360;BME280;6244;51.460;7.090;2023-03-03T21:51:46;101540.16;;;3.94;66.90
12360;BME280;6244;51.460;7.090;2023-03-03T21:56:43;101538.44;;;3.95;66.20
12360;BME280;6244;51.460;7.090;2023-03-03T22:01:43;101547.97;;;3.97;66.32
12360;BME280;6244;51.460;7.090;2023-03-03T22:06:40;101541.00;;;4.01;65.86
12360;BME280;6244;51.460;7.090;2023-03-03T22:11:36;101535.81;;;3.99;65.34
12360;BME280;6244;51.460;7.090;2023-03-03T22:16:33;101538.34;;;4.04;65.25
12360;BME280;6244;51.460;7.090;2023-03-03T22:21:31;101542.56;;;4.16;65.04
12360;BME280;6244;51.460;7.090;2023-03-03T22:26:28;101538.28;;;4.11;65.11
12360;BME280;6244;51.460;7.090;2023-03-03T22:31:24;101541.72;;;4.13;65.20
12360;BME280;6244;51.460;7.090;2023-03-03T22:36:21;101539.06;;;4.18;64.60
12360;BME280;6244;51.460;7.090;2023-03-03T22:41:19;101532.13;;;4.19;64.97
12360;BME280;6244;51.460;7.090;2023-03-03T22:46:15;101541.66;;;4.20;65.03
12360;BME280;6244;51.460;7.090;2023-03-03T22:51:12;101541.69;;;4.15;65.48
12360;BME280;6244;51.460;7.090;2023-03-03T22:56:08;101545.19;;;4.14;65.49
12360;BME280;6244;51.460;7.090;2023-03-03T23:01:06;101534.84;;;4.11;65.66
12360;BME280;6244;51.460;7.090;2023-03-03T23:06:04;101529.63;;;4.11;65.76
12360;BME280;6244;51.460;7.090;2023-03-03T23:11:00;101539.09;;;4.17;65.49
12360;BME280;6244;51.460;7.090;2023-03-03T23:15:57;101536.44;;;4.20;65.19
12360;BME280;6244;51.460;7.090;2023-03-03T23:20:55;101529.47;;;4.26;65.30
12360;BME280;6244;51.460;7.090;2023-03-03T23:25:52;101529.47;;;4.25;65.34
12360;BME280;6244;51.460;7.090;2023-03-03T23:30:48;101534.63;;;4.29;65.13
12360;BME280;6244;51.460;7.090;2023-03-03T23:35:45;101538.13;;;4.25;65.22
12360;BME280;6244;51.460;7.090;2023-03-03T23:40:45;101533.03;;;4.16;65.39
12360;BME280;6244;51.460;7.090;2023-03-03T23:45:44;101533.94;;;4.13;65.51
12360;BME280;6244;51.460;7.090;2023-03-03T23:50:40;101536.44;;;4.20;65.20
12360;BME280;6244;51.460;7.090;2023-03-03T23:55:36;101531.22;;;4.21;65.45
